Time;durP1;ratioP1;P1;durP2;ratioP2;P2;SDS_P1;SDS_P2;PMS_P1;PMS_P2;Temp;Humidity;BMP_temperature;BMP_pressure;BME280_temperature;BME280_humidity;BME280_pressure;Samples;Min_cycle;Max_cycle;Signal;HPM_P1;HPM_P2
2022/05/25 00:00:24;;;;;;;5.78;4.53;;;15.50;99.90;;;;;;5076465;28;20074;-72
2022/05/25 00:02:51;;;;;;;7.50;4.47;;;15.50;99.90;;;;;;5074685;28;20020;-73
2022/05/25 00:05:20;;;;;;;4.97;4.00;;;15.60;99.90;;;;;;5075118;28;20020;-73
2022/05/25 00:07:47;;;;;;;7.57;4.07;;;15.60;99.90;;;;;;5076265;28;20333;-72
2022/05/25 00:10:15;;;;;;;5.85;4.38;;;15.70;99.90;;;;;;5076125;28;20028;-74
2022/05/25 00:12:43;;;;;;;6.57;4.70;;;15.80;99.90;;;;;;5074723;28;20020;-74
2022/05/25 00:15:12;;;;;;;6.95;4.35;;;15.90;99.90;;;;;;5075887;28;20021;-73
2022/05/25 00:17:40;;;;;;;5.35;3.45;;;15.90;99.90;;;;;;5076174;28;20469;-73
2022/05/25 00:20:09;;;;;;;6.35;4.45;;;16.00;99.90;;;;;;5074464;28;20128;-73
2022/05/25 00:22:46;;;;;;;10.00;4.32;;;16.10;99.90;;;;;;5074476;28;20021;-73
2022/05/25 00:25:27;;;;;;;4.05;2.22;;;16.20;99.90;;;;;;5075855;28;20056;-73
2022/05/25 00:27:55;;;;;;;3.58;2.17;;;16.20;99.90;;;;;;5074455;28;20435;-74
2022/05/25 00:30:25;;;;;;;4.38;2.03;;;16.20;99.90;;;;;;5075733;28;20097;-73
2022/05/25 00:32:56;;;;;;;3.92;2.85;;;16.30;99.90;;;;;;5075682;28;20029;-73
2022/05/25 00:35:25;;;;;;;5.15;2.90;;;16.40;99.90;;;;;;5075834;28;20033;-73
2022/05/25 00:37:52;;;;;;;6.18;2.20;;;16.50;99.90;;;;;;5075541;28;20040;-73
2022/05/25 00:40:27;;;;;;;3.40;2.90;;;16.60;99.90;;;;;;5074313;28;20021;-72
2022/05/25 00:42:54;;;;;;;2.97;1.90;;;16.60;99.90;;;;;;5074227;28;20020;-73
2022/05/25 00:45:22;;;;;;;5.00;2.30;;;16.70;99.90;;;;;;5075898;28;20027;-73
2022/05/25 00:47:51;;;;;;;3.83;1.65;;;16.80;99.90;;;;;;5075152;28;20087;-73
2022/05/25 00:50:23;;;;;;;3.83;2.40;;;16.90;99.90;;;;;;5075432;28;20024;-73
2022/05/25 00:52:51;;;;;;;4.43;2.15;;;17.10;99.90;;;;;;5075398;28;20028;-72
2022/05/25 00:55:28;;;;;;;4.95;1.60;;;17.20;99.90;;;;;;5075222;28;20025;-73
2022/05/25 00:57:59;;;;;;;3.53;1.90;;;17.20;99.90;;;;;;5075247;28;20422;-72
2022/05/25 01:00:29;;;;;;;3.58;2.28;;;17.20;99.90;;;;;;5073945;28;20048;-73
2022/05/25 01:03:08;;;;;;;5.05;2.50;;;17.20;99.90;;;;;;5074463;28;20109;-73
2022/05/25 01:05:55;;;;;;;5.65;1.80;;;17.10;99.90;;;;;;5075203;28;20465;-72
2022/05/25 01:08:56;;;;;;;4.18;1.88;;;17.00;99.90;;;;;;5075601;28;20120;-72
2022/05/25 01:11:55;;;;;;;1.58;1.30;;;17.20;99.90;;;;;;5075304;28;20443;-73
2022/05/25 01:14:31;;;;;;;2.63;1.52;;;17.50;99.90;;;;;;5073605;28;20056;-72
2022/05/25 01:17:26;;;;;;;1.80;1.45;;;17.40;99.90;;;;;;5073644;28;20480;-72
2022/05/25 01:20:14;;;;;;;3.40;1.85;;;17.50;99.90;;;;;;5073625;28;20055;-72
2022/05/25 01:22:51;;;;;;;4.28;1.90;;;17.40;99.90;;;;;;5074987;28;20104;-72
2022/05/25 01:25:42;;;;;;;4.43;2.22;;;17.60;99.90;;;;;;5075084;28;20488;-73
2022/05/25 01:28:24;;;;;;;4.05;1.90;;;17.80;99.90;;;;;;5074885;28;20024;-73
2022/05/25 01:30:56;;;;;;;2.17;1.35;;;17.60;99.90;;;;;;5074872;28;20023;-74
2022/05/25 01:33:38;;;;;;;2.15;1.20;;;17.80;99.90;;;;;;5074481;28;20043;-73
2022/05/25 01:36:12;;;;;;;5.05;1.40;;;18.00;99.90;;;;;;5074703;28;20028;-73
2022/05/25 01:39:05;;;;;;;6.05;1.38;;;18.00;99.90;;;;;;5073385;28;20055;-72
2022/05/25 01:41:49;;;;;;;3.20;1.23;;;18.00;99.90;;;;;;5074638;28;20039;-73
2022/05/25 01:44:21;;;;;;;1.92;0.80;;;18.20;99.90;;;;;;5073078;28;20028;-73
2022/05/25 01:47:01;;;;;;;3.03;0.88;;;18.20;99.90;;;;;;5074468;28;20055;-73
2022/05/25 01:49:41;;;;;;;2.47;0.90;;;18.40;99.90;;;;;;5073041;28;20052;-73
2022/05/25 01:52:11;;;;;;;1.20;0.70;;;18.40;99.90;;;;;;5074299;28;20060;-73
2022/05/25 01:54:39;;;;;;;;;;;18.40;99.90;;;;;;5074544;28;20027;-73
2022/05/25 01:57:13;;;;;;;2.15;0.88;;;18.50;99.90;;;;;;5074202;28;19904;-73
2022/05/25 01:59:42;;;;;;;2.25;0.90;;;18.50;99.90;;;;;;5072643;28;20070;-72
2022/05/25 02:04:58;;;;;;;1.85;0.85;;;18.60;99.90;;;;;;5074071;28;20107;-73
2022/05/25 02:07:30;;;;;;;1.58;0.60;;;18.70;99.90;;;;;;5073843;28;20029;-73
2022/05/25 02:10:18;;;;;;;1.98;0.55;;;18.80;99.90;;;;;;5074223;28;20364;-74
2022/05/25 02:13:03;;;;;;;2.72;0.82;;;18.90;99.90;;;;;;5074237;28;20024;-73
2022/05/25 02:15:45;;;;;;;2.80;0.60;;;19.10;99.90;;;;;;5073280;28;20024;-73
2022/05/25 02:18:36;;;;;;;1.98;0.85;;;19.30;99.90;;;;;;5072615;28;20020;-73
2022/05/25 02:21:10;;;;;;;0.93;0.50;;;19.20;99.90;;;;;;5073740;28;20051;-73
2022/05/25 02:23:58;;;;;;;1.10;0.50;;;18.90;99.90;;;;;;5072499;28;20021;-74
2022/05/25 02:26:29;;;;;;;1.60;0.90;;;18.90;99.90;;;;;;5074084;28;20093;-73
2022/05/25 02:29:09;;;;;;;0.77;0.17;;;19.10;99.90;;;;;;5074174;28;20043;-73
2022/05/25 02:31:51;;;;;;;1.45;0.38;;;19.00;99.90;;;;;;5073689;28;20527;-73
2022/05/25 02:34:21;;;;;;;2.30;0.50;;;18.90;99.90;;;;;;5073615;28;20047;-73
2022/05/25 02:36:49;;;;;;;;;;;18.80;99.90;;;;;;5072651;28;20024;-73
2022/05/25 02:39:16;;;;;;;2.22;0.90;;;18.80;99.90;;;;;;5073598;28;19957;-73
2022/05/25 02:41:55;;;;;;;2.40;1.27;;;18.70;99.90;;;;;;5072160;28;20036;-73
2022/05/25 02:44:24;;;;;;;4.15;1.10;;;18.80;99.90;;;;;;5072171;28;20574;-72
2022/05/25 02:46:52;;;;;;;2.17;0.80;;;18.90;99.90;;;;;;5072028;28;20052;-73
2022/05/25 02:49:19;;;;;;;2.45;0.70;;;19.10;99.90;;;;;;5071897;28;20056;-74
2022/05/25 02:51:47;;;;;;;2.97;0.80;;;19.20;99.90;;;;;;5071750;28;20090;-73
2022/05/25 02:54:14;;;;;;;2.60;0.80;;;19.00;99.90;;;;;;5073138;28;20027;-74
2022/05/25 02:56:41;;;;;;;3.10;1.05;;;19.50;99.90;;;;;;5073511;28;20114;-73
2022/05/25 02:59:09;;;;;;;3.42;1.20;;;19.80;99.90;;;;;;5073165;28;20534;-73
2022/05/25 03:01:36;;;;;;;2.50;0.90;;;20.20;99.90;;;;;;5072956;28;20016;-73
2022/05/25 03:04:03;;;;;;;4.18;1.17;;;20.40;99.90;;;;;;5071731;28;20435;-73
2022/05/25 03:06:31;;;;;;;2.90;1.25;;;20.50;99.90;;;;;;5072960;28;20020;-74
2022/05/25 03:08:58;;;;;;;6.80;1.35;;;20.40;99.90;;;;;;5071704;28;20024;-73
2022/05/25 03:11:25;;;;;;;4.07;1.27;;;20.30;99.90;;;;;;5073030;28;20020;-71
2022/05/25 03:13:53;;;;;;;3.90;1.40;;;20.30;99.90;;;;;;5072834;28;20099;-73
2022/05/25 03:16:22;;;;;;;3.22;1.17;;;20.10;99.90;;;;;;5073068;28;20107;-73
2022/05/25 03:18:53;;;;;;;3.70;1.50;;;19.80;99.90;;;;;;5073099;28;20017;-73
2022/05/25 03:21:21;;;;;;;5.70;1.27;;;19.60;99.90;;;;;;5072982;28;20024;-73
2022/05/25 03:23:48;;;;;;;4.47;1.65;;;19.30;99.90;;;;;;5071397;28;20392;-71
2022/05/25 03:26:17;;;;;;;6.22;1.40;;;19.30;99.90;;;;;;5072539;28;20012;-71
2022/05/25 03:28:45;;;;;;;2.80;1.20;;;19.30;99.90;;;;;;5072786;28;20016;-72
2022/05/25 03:31:12;;;;;;;7.90;1.95;;;19.20;99.90;;;;;;5072873;28;20060;-71
2022/05/25 03:33:40;;;;;;;3.35;1.48;;;19.40;99.90;;;;;;5072599;28;20028;-74
2022/05/25 03:36:11;;;;;;;2.97;1.23;;;19.60;99.90;;;;;;5071276;28;20048;-71
2022/05/25 03:38:39;;;;;;;2.75;1.52;;;19.50;99.90;;;;;;5072716;28;20485;-74
2022/05/25 03:41:06;;;;;;;6.32;1.70;;;19.70;99.90;;;;;;5072822;28;20017;-73
2022/05/25 03:43:37;;;;;;;3.85;1.25;;;19.90;99.90;;;;;;5071321;28;20047;-74
2022/05/25 03:46:05;;;;;;;3.15;1.30;;;19.90;99.90;;;;;;5073284;28;20029;-73
2022/05/25 03:48:32;;;;;;;2.70;0.95;;;19.90;99.90;;;;;;5072609;28;20025;-74
2022/05/25 03:50:59;;;;;;;4.93;1.10;;;19.60;99.90;;;;;;5072686;28;20025;-75
2022/05/25 03:53:27;;;;;;;3.70;1.05;;;19.40;99.90;;;;;;5071197;28;20047;-74
2022/05/25 03:55:54;;;;;;;1.67;0.80;;;19.30;99.90;;;;;;5071061;28;20107;-73
2022/05/25 03:58:21;;;;;;;4.72;1.33;;;19.20;99.90;;;;;;5072467;28;20103;-75
2022/05/25 04:00:49;;;;;;;3.60;1.33;;;19.30;99.90;;;;;;5072522;28;20054;-74
2022/05/25 04:03:17;;;;;;;3.47;1.30;;;19.20;99.90;;;;;;5072420;28;20017;-75
2022/05/25 04:05:45;;;;;;;2.78;1.15;;;19.40;99.90;;;;;;5071178;28;20036;-74
2022/05/25 04:08:12;;;;;;;3.20;0.98;;;19.20;99.90;;;;;;5072424;28;20549;-74
2022/05/25 04:10:40;;;;;;;4.65;1.52;;;19.00;99.90;;;;;;5071159;28;20107;-73
2022/05/25 04:13:08;;;;;;;2.05;0.50;;;19.10;99.90;;;;;;5072337;28;20143;-73
2022/05/25 04:15:36;;;;;;;1.48;0.50;;;19.20;99.90;;;;;;5072336;28;20495;-74
2022/05/25 04:18:04;;;;;;;2.78;1.02;;;19.40;99.90;;;;;;5072305;28;20434;-74
2022/05/25 04:20:33;;;;;;;3.17;0.50;;;19.50;99.90;;;;;;5072326;28;20105;-73
2022/05/25 04:23:02;;;;;;;1.98;0.43;;;19.50;99.90;;;;;;5071019;28;20020;-74
2022/05/25 04:25:30;;;;;;;2.83;1.20;;;19.30;99.90;;;;;;5071046;28;20021;-74
2022/05/25 04:27:58;;;;;;;2.65;0.63;;;19.20;99.90;;;;;;5072448;28;20372;-73
2022/05/25 04:30:29;;;;;;;2.53;0.55;;;19.10;99.90;;;;;;5072237;28;20099;-73
2022/05/25 04:32:56;;;;;;;2.47;0.50;;;18.90;99.90;;;;;;5072123;28;20024;-74
2022/05/25 04:35:26;;;;;;;2.10;0.45;;;18.80;99.90;;;;;;5070802;28;20072;-74
2022/05/25 04:37:54;;;;;;;2.58;0.65;;;18.80;99.90;;;;;;5072548;28;20389;-74
2022/05/25 04:40:38;;;;;;;2.00;0.70;;;18.70;99.90;;;;;;5074438;28;20080;-73
2022/05/25 04:43:12;;;;;;;2.60;0.80;;;18.60;99.90;;;;;;5074568;28;20571;-73
2022/05/25 04:45:41;;;;;;;2.53;0.43;;;18.40;99.90;;;;;;5075744;28;20023;-73
2022/05/25 04:48:08;;;;;;;2.05;0.80;;;18.40;99.90;;;;;;5075741;28;20028;-73
2022/05/25 04:50:40;;;;;;;1.98;0.43;;;18.30;99.90;;;;;;5074289;28;20136;-73
2022/05/25 04:53:13;;;;;;;1.63;0.75;;;18.20;99.90;;;;;;5075830;28;20431;-74
2022/05/25 04:58:29;;;;;;;2.28;0.57;;;18.00;99.90;;;;;;5075538;28;20095;-73
2022/05/25 05:00:57;;;;;;;2.53;0.45;;;17.90;99.90;;;;;;5075396;28;20020;-73
2022/05/25 05:03:26;;;;;;;1.48;0.50;;;17.90;99.90;;;;;;5075417;28;20028;-73
2022/05/25 05:05:54;;;;;;;2.50;0.70;;;17.90;99.90;;;;;;5075250;28;20443;-73
2022/05/25 05:08:22;;;;;;;2.00;0.40;;;17.80;99.90;;;;;;5074109;28;20029;-73
2022/05/25 05:10:50;;;;;;;2.22;0.57;;;17.70;99.90;;;;;;5073925;28;20025;-73
2022/05/25 05:13:18;;;;;;;1.00;0.65;;;17.70;99.90;;;;;;5074033;28;20416;-74
2022/05/25 05:15:51;;;;;;;1.63;0.50;;;17.70;99.90;;;;;;5075196;28;20028;-73
2022/05/25 05:18:20;;;;;;;4.25;0.55;;;17.70;99.90;;;;;;5075317;28;20017;-74
2022/05/25 05:20:48;;;;;;;4.20;0.60;;;17.60;99.90;;;;;;5074955;28;20024;-73
2022/05/25 05:23:15;;;;;;;2.50;0.40;;;17.60;99.90;;;;;;5075115;28;20047;-73
2022/05/25 05:25:42;;;;;;;0.98;0.30;;;17.50;99.90;;;;;;5074865;28;20078;-74
2022/05/25 05:28:16;;;;;;;2.22;0.52;;;17.40;99.90;;;;;;5073710;28;20477;-73
2022/05/25 05:30:55;;;;;;;2.58;0.50;;;17.40;99.90;;;;;;5074925;28;20028;-73
2022/05/25 05:33:24;;;;;;;2.05;0.45;;;17.40;99.90;;;;;;5074732;28;20032;-74
2022/05/25 05:36:00;;;;;;;2.90;0.70;;;17.40;99.90;;;;;;5074738;28;20064;-73
2022/05/25 05:38:29;;;;;;;2.15;0.40;;;17.40;99.90;;;;;;5074837;28;20020;-73
2022/05/25 05:40:57;;;;;;;2.10;0.57;;;17.40;99.90;;;;;;5073360;28;20027;-73
2022/05/25 05:43:24;;;;;;;1.75;0.50;;;17.40;99.90;;;;;;5074693;28;20012;-73
2022/05/25 05:45:53;;;;;;;2.08;0.50;;;17.40;99.90;;;;;;5073317;28;20029;-73
2022/05/25 05:48:27;;;;;;;2.78;0.60;;;17.30;99.90;;;;;;5074533;28;20527;-74
2022/05/25 05:50:56;;;;;;;3.47;0.73;;;17.40;99.90;;;;;;5074430;28;20024;-74
2022/05/25 05:53:26;;;;;;;1.55;0.65;;;17.40;99.90;;;;;;5073159;28;20081;-73
2022/05/25 05:55:54;;;;;;;2.90;0.50;;;17.40;99.90;;;;;;5074218;28;20021;-72
2022/05/25 05:58:22;;;;;;;2.78;0.85;;;17.40;99.90;;;;;;5074356;28;20112;-73
2022/05/25 06:00:49;;;;;;;2.95;1.10;;;17.50;99.90;;;;;;5072708;28;20025;-74
2022/05/25 06:03:17;;;;;;;3.20;0.50;;;17.50;99.90;;;;;;5073250;28;20051;-73
2022/05/25 06:05:44;;;;;;;1.50;0.35;;;17.50;99.90;;;;;;5072820;28;20033;-73
2022/05/25 06:08:15;;;;;;;2.58;0.60;;;17.50;99.90;;;;;;5074181;28;20530;-73
2022/05/25 06:10:43;;;;;;;1.45;0.40;;;17.50;99.90;;;;;;5074163;28;20020;-73
2022/05/25 06:13:11;;;;;;;4.20;0.50;;;17.50;99.90;;;;;;5074073;28;20028;-73
2022/05/25 06:21:11;;;;;;;2.38;0.50;;;17.30;99.90;;;;;;5074301;28;20113;-73
2022/05/25 06:23:38;;;;;;;2.33;0.55;;;17.20;99.90;;;;;;5073689;28;20024;-73
2022/05/25 06:26:05;;;;;;;2.40;0.50;;;17.10;99.90;;;;;;5073677;28;20021;-73
2022/05/25 06:28:33;;;;;;;2.65;0.50;;;17.00;99.90;;;;;;5073674;28;20048;-73
2022/05/25 06:31:03;;;;;;;3.50;0.65;;;16.90;99.90;;;;;;5073504;28;20103;-73
2022/05/25 06:33:30;;;;;;;1.92;0.45;;;16.80;99.90;;;;;;5073679;28;20097;-72
2022/05/25 06:36:10;;;;;;;2.40;0.30;;;16.70;99.90;;;;;;5073550;28;20028;-74
2022/05/25 06:38:37;;;;;;;1.25;0.50;;;16.60;99.90;;;;;;5073410;28;20108;-73
2022/05/25 06:41:05;;;;;;;2.22;0.35;;;16.50;99.90;;;;;;5073437;28;20472;-74
2022/05/25 06:43:33;;;;;;;3.10;0.70;;;16.50;99.90;;;;;;5071995;28;20024;-74
2022/05/25 06:46:00;;;;;;;1.13;0.50;;;16.40;99.90;;;;;;5072198;28;20417;-74
2022/05/25 06:48:27;;;;;;;2.70;1.17;;;16.30;99.90;;;;;;5073263;28;20017;-74
2022/05/25 06:50:55;;;;;;;3.80;1.00;;;16.30;99.90;;;;;;5073294;28;20063;-73
2022/05/25 06:53:22;;;;;;;3.00;1.02;;;16.10;99.90;;;;;;5073228;28;20028;-73
2022/05/25 06:55:49;;;;;;;3.28;1.23;;;16.10;99.90;;;;;;5073144;28;20028;-72
2022/05/25 06:58:17;;;;;;;4.50;1.40;;;16.30;99.90;;;;;;5071872;28;20032;-73
2022/05/25 07:00:44;;;;;;;2.35;0.93;;;16.30;99.90;;;;;;5071103;28;20053;-72
2022/05/25 07:03:11;;;;;;;4.50;1.30;;;16.10;99.90;;;;;;5071680;28;20088;-73
2022/05/25 07:05:39;;;;;;;4.07;0.95;;;15.90;99.90;;;;;;5071609;28;20029;-74
2022/05/25 07:08:06;;;;;;;3.28;1.00;;;15.80;99.90;;;;;;5071440;28;20125;-74
2022/05/25 07:10:34;;;;;;;3.03;1.25;;;15.70;99.90;;;;;;5072812;28;20028;-76
2022/05/25 07:13:01;;;;;;;4.97;1.13;;;15.90;99.90;;;;;;5072992;28;20472;-74
2022/05/25 07:15:28;;;;;;;5.43;1.60;;;15.90;99.90;;;;;;5071558;28;20119;-74
2022/05/25 07:17:55;;;;;;;3.92;1.25;;;16.00;99.90;;;;;;5071662;28;20385;-75
2022/05/25 07:20:23;;;;;;;4.40;1.50;;;16.00;99.90;;;;;;5071728;28;20055;-74
2022/05/25 07:22:50;;;;;;;4.38;1.83;;;16.00;99.90;;;;;;5071479;28;20044;-73
2022/05/25 07:25:18;;;;;;;3.00;1.50;;;15.90;99.90;;;;;;5072910;28;20488;-73
2022/05/25 07:27:45;;;;;;;3.20;1.58;;;15.80;99.90;;;;;;5071617;28;20029;-74
2022/05/25 07:30:13;;;;;;;3.83;1.50;;;15.70;99.90;;;;;;5072806;28;20469;-73
2022/05/25 07:32:42;;;;;;;4.05;1.50;;;15.60;99.90;;;;;;5072783;28;20028;-73
2022/05/25 07:35:11;;;;;;;2.85;1.30;;;15.40;99.90;;;;;;5071262;28;20048;-73
2022/05/25 07:37:41;;;;;;;2.75;1.35;;;15.40;99.90;;;;;;5072791;28;20029;-73
2022/05/25 07:40:25;;;;;;;2.58;1.17;;;15.30;99.90;;;;;;5071412;28;20403;-73
2022/05/25 07:43:00;;;;;;;4.70;1.73;;;15.20;99.90;;;;;;5072747;28;20104;-73
2022/05/25 07:45:27;;;;;;;4.70;2.13;;;15.20;99.90;;;;;;5071361;28;20025;-73
2022/05/25 07:47:55;;;;;;;5.22;2.22;;;15.20;99.90;;;;;;5072538;28;20032;-73
2022/05/25 07:50:23;;;;;;;4.43;1.90;;;15.10;99.90;;;;;;5071309;28;20020;-73
2022/05/25 07:52:53;;;;;;;4.13;1.85;;;15.10;99.90;;;;;;5072748;28;20021;-73
2022/05/25 07:55:21;;;;;;;4.07;1.97;;;15.10;99.90;;;;;;5072755;28;20024;-74
2022/05/25 07:57:48;;;;;;;4.55;2.40;;;15.10;99.90;;;;;;5071173;28;20032;-73
2022/05/25 08:00:19;;;;;;;5.00;2.28;;;15.10;99.90;;;;;;5072499;28;20012;-74
2022/05/25 08:05:43;;;;;;;8.20;3.33;;;15.00;99.90;;;;;;5072329;28;20036;-73
2022/05/25 08:08:21;;;;;;;4.35;3.40;;;15.00;99.90;;;;;;5071019;28;20086;-73
2022/05/25 08:11:20;;;;;;;6.10;2.80;;;15.00;99.90;;;;;;5072700;28;20025;-73
2022/05/25 08:13:51;;;;;;;5.03;3.42;;;15.00;99.90;;;;;;5063682;28;20032;-73
2022/05/25 08:16:19;;;;;;;5.75;3.60;;;14.90;99.90;;;;;;5076329;28;20025;-73
2022/05/25 08:18:47;;;;;;;6.25;2.83;;;14.90;99.90;;;;;;5074989;28;20032;-73
2022/05/25 08:21:14;;;;;;;4.00;2.05;;;14.80;99.90;;;;;;5076280;28;20024;-72
2022/05/25 08:23:41;;;;;;;4.43;2.13;;;14.80;99.90;;;;;;5075965;28;20024;-72
2022/05/25 08:26:09;;;;;;;5.00;2.58;;;14.80;99.90;;;;;;5075889;28;20103;-73
2022/05/25 08:28:36;;;;;;;5.40;2.67;;;14.80;99.90;;;;;;5076577;28;20111;-73
2022/05/25 08:31:05;;;;;;;5.15;2.88;;;14.80;99.90;;;;;;5074761;28;20115;-72
2022/05/25 08:33:32;;;;;;;6.82;3.00;;;14.70;99.90;;;;;;5075771;28;20560;-72
2022/05/25 08:36:00;;;;;;;6.05;2.92;;;14.70;99.90;;;;;;5075793;28;20088;-73
2022/05/25 08:38:28;;;;;;;6.68;3.30;;;14.70;99.90;;;;;;5074466;28;20115;-73
2022/05/25 08:40:58;;;;;;;5.53;2.75;;;14.60;99.90;;;;;;5074449;28;20028;-72
2022/05/25 08:43:27;;;;;;;4.97;2.70;;;14.60;99.90;;;;;;5075773;28;20384;-74
2022/05/25 08:46:03;;;;;;;5.40;3.05;;;14.50;99.90;;;;;;5075812;28;20393;-73
2022/05/25 08:48:36;;;;;;;7.13;3.20;;;14.50;99.90;;;;;;5075835;28;20031;-72
2022/05/25 08:51:10;;;;;;;4.55;3.25;;;14.40;99.90;;;;;;5075728;28;20023;-74
2022/05/25 08:53:38;;;;;;;7.93;3.65;;;14.40;99.90;;;;;;5074382;28;20024;-74
2022/05/25 08:56:24;;;;;;;7.55;3.65;;;14.40;99.90;;;;;;5075545;28;20025;-73
2022/05/25 08:59:10;;;;;;;6.65;4.38;;;14.40;99.90;;;;;;5075648;28;20056;-73
2022/05/25 09:01:54;;;;;;;7.25;3.78;;;14.40;99.90;;;;;;5075547;28;20021;-73
2022/05/25 09:04:43;;;;;;;6.20;3.75;;;14.30;99.90;;;;;;5074180;28;20158;-74
2022/05/25 09:07:25;;;;;;;7.05;3.95;;;14.30;99.90;;;;;;5075775;28;20020;-74
2022/05/25 09:09:53;;;;;;;7.00;4.25;;;14.30;99.90;;;;;;5074111;28;20101;-75
2022/05/25 09:12:38;;;;;;;7.80;5.22;;;14.20;99.90;;;;;;5074060;28;20369;-73
2022/05/25 09:15:13;;;;;;;6.55;4.53;;;14.20;99.90;;;;;;5075144;28;20029;-74
2022/05/25 09:17:49;;;;;;;7.63;5.03;;;14.10;99.90;;;;;;5073981;28;20024;-74
2022/05/25 09:20:22;;;;;;;11.85;6.80;;;14.10;99.90;;;;;;5073895;28;20021;-73
2022/05/25 09:22:50;;;;;;;9.45;6.10;;;14.10;99.90;;;;;;5073317;28;20473;-72
2022/05/25 09:25:19;;;;;;;9.30;7.13;;;14.10;99.90;;;;;;5075066;28;20093;-73
2022/05/25 09:28:12;;;;;;;11.43;6.65;;;14.00;99.90;;;;;;5075147;28;20519;-73
2022/05/25 09:30:43;;;;;;;8.93;6.28;;;14.00;99.90;;;;;;5075223;28;20104;-72
2022/05/25 09:33:36;;;;;;;10.95;6.95;;;13.90;99.90;;;;;;5073492;28;20031;-73
2022/05/25 09:36:13;;;;;;;8.27;6.07;;;13.90;99.90;;;;;;5074489;28;20041;-72
2022/05/25 09:38:57;;;;;;;6.05;5.45;;;13.90;99.90;;;;;;5074950;28;20030;-72
2022/05/25 09:41:27;;;;;;;6.47;5.00;;;13.90;99.90;;;;;;5075113;28;20017;-72
2022/05/25 09:43:58;;;;;;;7.40;5.32;;;13.90;99.90;;;;;;5074888;28;20496;-74
2022/05/25 09:46:34;;;;;;;10.05;6.07;;;13.80;99.90;;;;;;5073583;28;20485;-73
2022/05/25 09:49:11;;;;;;;11.10;6.63;;;13.80;99.90;;;;;;5075331;28;20021;-73
2022/05/25 09:51:45;;;;;;;8.73;6.57;;;13.80;99.90;;;;;;5074692;28;20070;-73
2022/05/25 09:54:19;;;;;;;10.10;6.53;;;13.90;99.90;;;;;;5074574;28;20113;-73
2022/05/25 09:56:59;;;;;;;9.20;7.15;;;13.80;99.90;;;;;;5073256;28;20031;-73
2022/05/25 09:59:30;;;;;;;8.60;5.75;;;13.80;99.90;;;;;;5073261;28;20021;-73
2022/05/25 10:01:58;;;;;;;9.52;6.05;;;13.80;99.90;;;;;;5073248;28;20028;-73
2022/05/25 10:04:56;;;;;;;7.82;5.35;;;13.70;99.90;;;;;;5073044;28;20028;-73
2022/05/25 10:07:48;;;;;;;8.57;6.05;;;13.80;99.90;;;;;;5073035;28;20052;-73
2022/05/25 10:10:34;;;;;;;8.15;5.18;;;13.80;99.90;;;;;;5074311;28;20147;-73
2022/05/25 10:13:25;;;;;;;7.78;4.60;;;13.80;99.90;;;;;;5074269;28;20048;-73
2022/05/25 10:15:53;;;;;;;8.25;4.35;;;13.80;99.90;;;;;;5072768;28;20123;-73
2022/05/25 10:18:43;;;;;;;5.93;3.90;;;13.80;99.90;;;;;;5072749;28;20021;-73
2022/05/25 10:21:30;;;;;;;7.22;4.05;;;13.80;99.90;;;;;;5074164;28;20021;-73
2022/05/25 10:23:59;;;;;;;6.85;4.07;;;13.70;99.90;;;;;;5074544;28;20558;-73
2022/05/25 10:26:45;;;;;;;5.82;3.80;;;13.70;99.90;;;;;;5073933;28;20021;-73
2022/05/25 10:36:45;;;;;;;6.50;3.67;;;13.70;99.90;;;;;;5074079;28;20032;-73
2022/05/25 10:38:39;;;;;;;8.23;4.03;;;13.70;99.90;;;;;;5074297;28;20503;-72
2022/05/25 10:44:21;;;;;;;5.38;2.97;;;13.60;99.90;;;;;;5073752;28;20040;-73
2022/05/25 10:46:57;;;;;;;8.07;3.85;;;13.70;99.90;;;;;;5073348;28;20033;-73
2022/05/25 10:49:24;;;;;;;7.05;3.10;;;13.60;99.90;;;;;;5072206;28;20067;-72
2022/05/25 10:51:59;;;;;;;6.68;3.08;;;13.70;99.90;;;;;;5073436;28;20012;-72
2022/05/25 10:54:53;;;;;;;6.25;3.08;;;13.70;99.90;;;;;;5073864;28;20111;-72
2022/05/25 10:57:56;;;;;;;6.97;3.35;;;13.70;99.90;;;;;;5073449;28;20019;-71
2022/05/25 11:00:41;;;;;;;6.32;3.40;;;13.70;99.90;;;;;;5069258;28;20078;-71
2022/05/25 11:03:39;;;;;;;5.93;2.97;;;13.70;99.90;;;;;;5073337;28;20021;-71
2022/05/25 11:06:24;;;;;;;8.07;3.70;;;13.60;99.90;;;;;;5073261;28;20396;-71
2022/05/25 11:09:12;;;;;;;7.13;3.50;;;13.60;99.90;;;;;;5073396;28;20414;-71
2022/05/25 11:12:20;;;;;;;7.45;3.03;;;13.60;99.90;;;;;;5073176;28;20025;-71
2022/05/25 11:15:18;;;;;;;8.48;4.03;;;13.60;99.90;;;;;;5073079;28;20017;-71
2022/05/25 11:18:16;;;;;;;7.18;4.10;;;13.60;99.90;;;;;;5071778;28;20021;-71
2022/05/25 11:21:19;;;;;;;6.88;4.30;;;13.70;99.90;;;;;;5073029;28;20024;-71
2022/05/25 11:24:10;;;;;;;6.10;4.20;;;13.60;99.90;;;;;;5071682;28;20029;-72
2022/05/25 11:27:02;;;;;;;6.25;3.47;;;13.60;99.90;;;;;;5073072;28;20023;-71
2022/05/25 11:29:49;;;;;;;6.32;4.20;;;13.60;99.90;;;;;;5071374;28;20074;-73
2022/05/25 11:32:40;;;;;;;8.70;3.92;;;13.50;99.90;;;;;;5071495;28;20021;-72
2022/05/25 11:35:17;;;;;;;8.68;3.22;;;13.50;99.90;;;;;;5072695;28;20405;-72
2022/05/25 11:37:58;;;;;;;8.52;3.67;;;13.60;99.90;;;;;;5073103;28;20059;-73
2022/05/25 11:40:56;;;;;;;;;;;13.60;99.90;;;;;;5073310;28;20500;-72
2022/05/25 11:43:36;;;;;;;7.03;4.18;;;13.60;99.90;;;;;;5039048;28;19904;-73
2022/05/25 11:46:43;;;;;;;6.88;4.07;;;13.60;99.90;;;;;;5072519;28;20393;-73
2022/05/25 11:49:15;;;;;;;6.93;3.42;;;13.70;99.90;;;;;;5030711;28;20033;-72
2022/05/25 11:51:52;;;;;;;5.90;3.40;;;13.70;99.90;;;;;;5014198;28;20022;-73
2022/05/25 11:54:44;;;;;;;5.57;3.83;;;13.70;99.90;;;;;;5056081;28;20063;-72
2022/05/25 11:57:45;;;;;;;7.65;3.90;;;13.70;99.90;;;;;;5071322;28;20366;-72
2022/05/25 12:00:21;;;;;;;6.22;3.63;;;13.60;99.90;;;;;;5072966;28;20083;-72
2022/05/25 12:03:09;;;;;;;5.47;3.22;;;13.60;99.90;;;;;;5072911;28;20536;-72
2022/05/25 12:05:54;;;;;;;9.48;3.75;;;13.50;99.90;;;;;;5072613;28;20031;-72
2022/05/25 12:08:33;;;;;;;7.05;3.80;;;13.60;99.90;;;;;;5072534;28;20422;-72
2022/05/25 12:11:13;;;;;;;6.68;3.42;;;13.60;99.90;;;;;;5072752;28;20499;-72
2022/05/25 12:14:06;;;;;;;7.03;4.32;;;13.60;99.90;;;;;;5071200;28;20024;-72
2022/05/25 12:16:45;;;;;;;10.65;5.78;;;13.70;99.90;;;;;;5049341;28;20048;-72
2022/05/25 12:19:24;;;;;;;5.63;4.78;;;13.70;99.90;;;;;;5071215;28;20051;-72
2022/05/25 12:22:11;;;;;;;11.45;6.50;;;13.70;99.90;;;;;;5071160;28;20429;-72
2022/05/25 12:24:45;;;;;;;7.80;7.10;;;13.70;99.90;;;;;;5072473;28;20108;-73
2022/05/25 12:27:19;;;;;;;9.82;6.90;;;13.60;99.90;;;;;;5072310;28;20021;-73
2022/05/25 12:29:54;;;;;;;9.05;6.97;;;13.60;99.90;;;;;;5072353;28;20024;-72
2022/05/25 12:32:22;;;;;;;11.52;7.78;;;13.70;99.90;;;;;;5072631;28;20025;-73
2022/05/25 12:34:55;;;;;;;12.13;10.65;;;13.60;99.90;;;;;;5072033;28;20094;-73
2022/05/25 12:37:34;;;;;;;11.80;8.63;;;13.60;99.90;;;;;;5070996;28;20021;-72
2022/05/25 12:40:32;;;;;;;10.23;6.72;;;13.50;99.90;;;;;;5072575;28;20052;-72
2022/05/25 12:42:59;;;;;;;9.45;5.50;;;13.50;99.90;;;;;;5072250;28;20062;-72
2022/05/25 12:48:31;;;;;;;8.52;4.63;;;13.50;99.90;;;;;;5072306;28;20086;-72
2022/05/25 12:51:09;;;;;;;9.32;5.20;;;13.50;99.90;;;;;;5070928;28;20031;-72
2022/05/25 12:53:42;;;;;;;7.40;4.80;;;13.50;99.90;;;;;;5070890;28;20029;-71
2022/05/25 12:56:24;;;;;;;8.65;5.13;;;13.40;99.90;;;;;;5072064;28;20082;-72
2022/05/25 12:59:00;;;;;;;8.73;5.28;;;13.40;99.90;;;;;;5073668;28;20096;-71
2022/05/25 13:01:35;;;;;;;8.80;5.75;;;13.40;99.90;;;;;;5075653;28;20024;-72
2022/05/25 13:04:20;;;;;;;7.28;4.80;;;13.30;99.90;;;;;;5074262;28;20394;-72
2022/05/25 13:06:48;;;;;;;6.47;5.00;;;13.30;99.90;;;;;;5075756;28;20063;-72
2022/05/25 13:09:39;;;;;;;7.70;4.93;;;13.30;99.90;;;;;;5075842;28;20461;-72
2022/05/25 13:12:44;;;;;;;7.40;4.90;;;13.20;99.90;;;;;;5075433;28;20377;-72
2022/05/25 13:15:20;;;;;;;7.05;5.00;;;13.20;99.90;;;;;;5072451;28;20142;-72
2022/05/25 13:17:50;;;;;;;6.65;4.85;;;13.20;99.90;;;;;;5075574;28;20020;-72
2022/05/25 13:20:50;;;;;;;8.13;4.88;;;13.10;99.90;;;;;;5074074;28;20035;-72
2022/05/25 13:23:58;;;;;;;7.65;5.55;;;13.20;99.90;;;;;;5067741;28;20063;-72
2022/05/25 13:27:03;;;;;;;9.45;5.65;;;13.10;99.90;;;;;;5061388;28;20029;-72
2022/05/25 13:30:02;;;;;;;8.93;6.28;;;13.10;99.90;;;;;;5059307;28;20469;-74
2022/05/25 13:32:51;;;;;;;9.68;6.50;;;13.10;99.90;;;;;;5048700;28;20036;-74
2022/05/25 13:35:33;;;;;;;8.68;6.68;;;13.10;99.90;;;;;;5074945;28;20060;-74
2022/05/25 13:38:04;;;;;;;9.65;7.03;;;13.00;99.90;;;;;;5073612;28;20100;-73
2022/05/25 13:40:42;;;;;;;10.45;7.47;;;13.00;99.90;;;;;;5075285;28;20515;-74
2022/05/25 13:43:18;;;;;;;11.68;7.90;;;13.00;99.90;;;;;;5074881;28;20025;-74
2022/05/25 13:45:48;;;;;;;11.40;7.75;;;12.90;99.90;;;;;;5074831;28;20028;-74
2022/05/25 13:48:17;;;;;;;9.30;7.40;;;12.90;99.90;;;;;;5074787;28;20523;-73
2022/05/25 13:50:53;;;;;;;10.48;7.13;;;12.90;99.90;;;;;;5073416;28;20035;-74
2022/05/25 13:53:31;;;;;;;10.75;7.00;;;12.90;99.90;;;;;;5074626;28;20032;-75